sensor_id;sensor_type;location;lat;lon;timestamp;P1;durP1;ratioP1;P2;durP2;ratioP2
43771;SDS011;59066;54.782;32.024;2022-11-18T00:01:13;6.45;;;3.38;;
43771;SDS011;59066;54.782;32.024;2022-11-18T00:03:42;4.63;;;2.50;;
43771;SDS011;59066;54.782;32.024;2022-11-18T00:06:11;5.72;;;2.80;;
43771;SDS011;59066;54.782;32.024;2022-11-18T00:08:40;4.38;;;2.53;;
43771;SDS011;59066;54.782;32.024;2022-11-18T00:11:11;4.45;;;2.42;;
43771;SDS011;59066;54.782;32.024;2022-11-18T00:14:03;4.22;;;2.65;;
43771;SDS011;59066;54.782;32.024;2022-11-18T00:16:57;4.43;;;2.60;;
43771;SDS011;59066;54.782;32.024;2022-11-18T00:19:28;5.47;;;3.10;;
43771;SDS011;59066;54.782;32.024;2022-11-18T00:21:57;4.07;;;2.55;;
43771;SDS011;59066;54.782;32.024;2022-11-18T00:24:25;4.20;;;3.08;;
43771;SDS011;59066;54.782;32.024;2022-11-18T00:26:52;4.15;;;2.47;;
43771;SDS011;59066;54.782;32.024;2022-11-18T00:29:21;9.30;;;3.33;;
43771;SDS011;59066;54.782;32.024;2022-11-18T00:31:49;7.78;;;3.80;;
43771;SDS011;59066;54.782;32.024;2022-11-18T00:34:17;4.57;;;2.92;;
43771;SDS011;59066;54.782;32.024;2022-11-18T00:36:45;4.78;;;3.47;;
43771;SDS011;59066;54.782;32.024;2022-11-18T00:39:14;4.40;;;2.80;;
43771;SDS011;59066;54.782;32.024;2022-11-18T00:41:43;4.10;;;2.88;;
43771;SDS011;59066;54.782;32.024;2022-11-18T00:44:29;5.93;;;2.78;;
43771;SDS011;59066;54.782;32.024;2022-11-18T00:46:57;3.33;;;2.78;;
43771;SDS011;59066;54.782;32.024;2022-11-18T00:49:24;5.10;;;2.85;;
43771;SDS011;59066;54.782;32.024;2022-11-18T00:51:52;4.43;;;2.83;;
43771;SDS011;59066;54.782;32.024;2022-11-18T00:54:19;4.35;;;3.13;;
43771;SDS011;59066;54.782;32.024;2022-11-18T00:56:46;5.38;;;3.00;;
43771;SDS011;59066;54.782;32.024;2022-11-18T00:59:14;4.13;;;2.53;;
43771;SDS011;59066;54.782;32.024;2022-11-18T01:01:42;6.53;;;3.15;;
43771;SDS011;59066;54.782;32.024;2022-11-18T01:04:09;2.65;;;1.80;;
43771;SDS011;59066;54.782;32.024;2022-11-18T01:06:36;5.18;;;2.40;;
43771;SDS011;59066;54.782;32.024;2022-11-18T01:09:04;6.10;;;2.33;;
43771;SDS011;59066;54.782;32.024;2022-11-18T01:11:31;4.55;;;2.80;;
43771;SDS011;59066;54.782;32.024;2022-11-18T01:14:17;3.90;;;2.28;;
43771;SDS011;59066;54.782;32.024;2022-11-18T01:16:45;3.20;;;2.17;;
43771;SDS011;59066;54.782;32.024;2022-11-18T01:19:17;5.40;;;2.53;;
43771;SDS011;59066;54.782;32.024;2022-11-18T01:21:45;4.25;;;2.20;;
43771;SDS011;59066;54.782;32.024;2022-11-18T01:24:13;4.60;;;2.58;;
43771;SDS011;59066;54.782;32.024;2022-11-18T01:26:40;6.03;;;2.75;;
43771;SDS011;59066;54.782;32.024;2022-11-18T01:29:08;3.95;;;2.33;;
43771;SDS011;59066;54.782;32.024;2022-11-18T01:31:36;5.25;;;2.95;;
43771;SDS011;59066;54.782;32.024;2022-11-18T01:34:20;4.35;;;2.45;;
43771;SDS011;59066;54.782;32.024;2022-11-18T01:36:50;2.70;;;2.30;;
43771;SDS011;59066;54.782;32.024;2022-11-18T01:39:18;3.55;;;2.20;;
43771;SDS011;59066;54.782;32.024;2022-11-18T01:41:46;2.78;;;2.17;;
43771;SDS011;59066;54.782;32.024;2022-11-18T01:47:18;4.07;;;2.03;;
43771;SDS011;59066;54.782;32.024;2022-11-18T01:49:46;6.40;;;2.28;;
43771;SDS011;59066;54.782;32.024;2022-11-18T01:52:14;4.82;;;2.38;;
43771;SDS011;59066;54.782;32.024;2022-11-18T01:54:42;3.03;;;2.35;;
43771;SDS011;59066;54.782;32.024;2022-11-18T01:57:14;6.45;;;3.30;;
43771;SDS011;59066;54.782;32.024;2022-11-18T01:59:45;4.38;;;2.65;;
43771;SDS011;59066;54.782;32.024;2022-11-18T02:02:16;5.00;;;2.75;;
43771;SDS011;59066;54.782;32.024;2022-11-18T02:04:44;3.63;;;2.55;;
43771;SDS011;59066;54.782;32.024;2022-11-18T02:07:14;3.10;;;2.40;;
43771;SDS011;59066;54.782;32.024;2022-11-18T02:09:43;5.88;;;2.90;;
43771;SDS011;59066;54.782;32.024;2022-11-18T02:12:10;4.25;;;2.53;;
43771;SDS011;59066;54.782;32.024;2022-11-18T02:14:41;3.78;;;2.33;;
43771;SDS011;59066;54.782;32.024;2022-11-18T02:32:05;5.25;;;2.33;;
43771;SDS011;59066;54.782;32.024;2022-11-18T02:34:41;6.88;;;2.33;;
43771;SDS011;59066;54.782;32.024;2022-11-18T02:37:48;3.28;;;2.15;;
43771;SDS011;59066;54.782;32.024;2022-11-18T02:40:35;3.55;;;2.40;;
43771;SDS011;59066;54.782;32.024;2022-11-18T02:43:33;4.88;;;2.40;;
43771;SDS011;59066;54.782;32.024;2022-11-18T02:46:16;5.00;;;3.00;;
43771;SDS011;59066;54.782;32.024;2022-11-18T02:48:49;4.05;;;2.20;;
43771;SDS011;59066;54.782;32.024;2022-11-18T02:51:24;5.18;;;2.80;;
43771;SDS011;59066;54.782;32.024;2022-11-18T02:53:55;6.50;;;3.00;;
43771;SDS011;59066;54.782;32.024;2022-11-18T02:56:26;4.40;;;2.30;;
43771;SDS011;59066;54.782;32.024;2022-11-18T02:58:55;5.97;;;2.60;;
43771;SDS011;59066;54.782;32.024;2022-11-18T03:01:23;3.67;;;2.38;;
43771;SDS011;59066;54.782;32.024;2022-11-18T03:03:56;2.97;;;2.25;;
43771;SDS011;59066;54.782;32.024;2022-11-18T03:17:48;5.10;;;2.53;;
43771;SDS011;59066;54.782;32.024;2022-11-18T03:21:19;5.25;;;2.55;;
43771;SDS011;59066;54.782;32.024;2022-11-18T03:24:24;8.07;;;2.45;;
43771;SDS011;59066;54.782;32.024;2022-11-18T03:26:47;4.70;;;2.65;;
43771;SDS011;59066;54.782;32.024;2022-11-18T03:29:22;6.30;;;2.40;;
43771;SDS011;59066;54.782;32.024;2022-11-18T03:31:56;6.35;;;2.92;;
43771;SDS011;59066;54.782;32.024;2022-11-18T03:34:36;6.05;;;3.33;;
43771;SDS011;59066;54.782;32.024;2022-11-18T03:37:25;4.03;;;2.57;;
43771;SDS011;59066;54.782;32.024;2022-11-18T03:39:56;3.22;;;2.20;;
43771;SDS011;59066;54.782;32.024;2022-11-18T03:42:31;3.30;;;1.93;;
43771;SDS011;59066;54.782;32.024;2022-11-18T03:45:05;6.10;;;3.03;;
43771;SDS011;59066;54.782;32.024;2022-11-18T03:47:41;6.65;;;2.70;;
43771;SDS011;59066;54.782;32.024;2022-11-18T03:50:32;3.10;;;2.15;;
43771;SDS011;59066;54.782;32.024;2022-11-18T03:53:05;3.38;;;2.30;;
43771;SDS011;59066;54.782;32.024;2022-11-18T03:55:38;3.70;;;2.45;;
43771;SDS011;59066;54.782;32.024;2022-11-18T04:01:12;4.95;;;2.38;;
43771;SDS011;59066;54.782;32.024;2022-11-18T04:03:43;3.55;;;2.30;;
43771;SDS011;59066;54.782;32.024;2022-11-18T04:06:16;4.07;;;2.65;;
43771;SDS011;59066;54.782;32.024;2022-11-18T04:09:02;3.63;;;2.35;;
43771;SDS011;59066;54.782;32.024;2022-11-18T04:11:59;4.22;;;2.60;;
43771;SDS011;59066;54.782;32.024;2022-11-18T04:14:32;4.25;;;2.92;;
43771;SDS011;59066;54.782;32.024;2022-11-18T04:17:20;3.78;;;2.42;;
43771;SDS011;59066;54.782;32.024;2022-11-18T04:19:49;4.80;;;2.90;;
43771;SDS011;59066;54.782;32.024;2022-11-18T04:22:17;4.78;;;3.00;;
43771;SDS011;59066;54.782;32.024;2022-11-18T04:24:45;6.38;;;2.60;;
43771;SDS011;59066;54.782;32.024;2022-11-18T04:27:12;9.07;;;3.42;;
43771;SDS011;59066;54.782;32.024;2022-11-18T04:29:40;5.43;;;2.95;;
43771;SDS011;59066;54.782;32.024;2022-11-18T04:32:07;4.78;;;3.35;;
43771;SDS011;59066;54.782;32.024;2022-11-18T04:34:35;4.13;;;2.60;;
43771;SDS011;59066;54.782;32.024;2022-11-18T04:37:02;8.10;;;3.60;;
43771;SDS011;59066;54.782;32.024;2022-11-18T04:39:30;6.38;;;3.00;;
43771;SDS011;59066;54.782;32.024;2022-11-18T04:41:57;6.93;;;3.63;;
43771;SDS011;59066;54.782;32.024;2022-11-18T04:46:53;7.95;;;4.00;;
43771;SDS011;59066;54.782;32.024;2022-11-18T04:49:22;8.52;;;3.95;;
43771;SDS011;59066;54.782;32.024;2022-11-18T04:51:50;4.85;;;3.00;;
43771;SDS011;59066;54.782;32.024;2022-11-18T04:54:19;6.05;;;3.55;;
43771;SDS011;59066;54.782;32.024;2022-11-18T04:56:47;5.75;;;3.55;;
43771;SDS011;59066;54.782;32.024;2022-11-18T04:59:16;6.93;;;3.75;;
43771;SDS011;59066;54.782;32.024;2022-11-18T05:01:46;10.95;;;4.35;;
43771;SDS011;59066;54.782;32.024;2022-11-18T05:04:14;6.60;;;3.78;;
43771;SDS011;59066;54.782;32.024;2022-11-18T05:06:44;7.13;;;5.05;;
43771;SDS011;59066;54.782;32.024;2022-11-18T05:09:11;7.85;;;5.25;;
43771;SDS011;59066;54.782;32.024;2022-11-18T05:11:39;7.65;;;4.20;;
43771;SDS011;59066;54.782;32.024;2022-11-18T05:14:25;11.77;;;3.83;;
43771;SDS011;59066;54.782;32.024;2022-11-18T05:16:54;6.03;;;3.80;;
43771;SDS011;59066;54.782;32.024;2022-11-18T05:19:22;5.82;;;3.63;;
43771;SDS011;59066;54.782;32.024;2022-11-18T05:21:50;5.75;;;3.95;;
43771;SDS011;59066;54.782;32.024;2022-11-18T05:24:17;6.75;;;4.03;;
43771;SDS011;59066;54.782;32.024;2022-11-18T05:26:45;8.27;;;4.78;;
43771;SDS011;59066;54.782;32.024;2022-11-18T05:29:13;14.20;;;8.38;;
43771;SDS011;59066;54.782;32.024;2022-11-18T05:31:40;9.50;;;5.00;;
43771;SDS011;59066;54.782;32.024;2022-11-18T05:34:08;11.25;;;5.43;;
43771;SDS011;59066;54.782;32.024;2022-11-18T05:36:35;6.93;;;3.78;;
43771;SDS011;59066;54.782;32.024;2022-11-18T05:39:03;5.13;;;3.65;;
43771;SDS011;59066;54.782;32.024;2022-11-18T05:41:31;8.80;;;3.80;;
43771;SDS011;59066;54.782;32.024;2022-11-18T05:44:16;12.70;;;10.50;;
43771;SDS011;59066;54.782;32.024;2022-11-18T05:46:44;6.47;;;4.28;;
43771;SDS011;59066;54.782;32.024;2022-11-18T05:49:11;6.18;;;3.92;;
43771;SDS011;59066;54.782;32.024;2022-11-18T05:51:39;9.52;;;5.80;;
43771;SDS011;59066;54.782;32.024;2022-11-18T05:54:07;7.25;;;4.00;;
43771;SDS011;59066;54.782;32.024;2022-11-18T05:56:36;7.25;;;4.32;;
43771;SDS011;59066;54.782;32.024;2022-11-18T05:59:05;6.55;;;4.05;;
43771;SDS011;59066;54.782;32.024;2022-11-18T06:06:58;8.40;;;4.55;;
43771;SDS011;59066;54.782;32.024;2022-11-18T06:09:31;6.88;;;3.25;;
43771;SDS011;59066;54.782;32.024;2022-11-18T06:12:03;7.10;;;3.97;;
43771;SDS011;59066;54.782;32.024;2022-11-18T06:14:39;5.88;;;3.63;;
43771;SDS011;59066;54.782;32.024;2022-11-18T06:17:14;7.82;;;3.67;;
43771;SDS011;59066;54.782;32.024;2022-11-18T06:19:46;8.32;;;3.83;;
43771;SDS011;59066;54.782;32.024;2022-11-18T06:22:13;8.25;;;3.78;;
43771;SDS011;59066;54.782;32.024;2022-11-18T06:24:41;6.65;;;3.80;;
43771;SDS011;59066;54.782;32.024;2022-11-18T06:27:09;6.38;;;3.58;;
43771;SDS011;59066;54.782;32.024;2022-11-18T06:29:38;5.30;;;3.45;;
43771;SDS011;59066;54.782;32.024;2022-11-18T06:32:06;6.90;;;3.92;;
43771;SDS011;59066;54.782;32.024;2022-11-18T06:34:33;6.15;;;3.40;;
43771;SDS011;59066;54.782;32.024;2022-11-18T06:37:17;5.10;;;3.67;;
43771;SDS011;59066;54.782;32.024;2022-11-18T06:39:48;6.88;;;3.42;;
43771;SDS011;59066;54.782;32.024;2022-11-18T06:42:16;5.50;;;3.60;;
43771;SDS011;59066;54.782;32.024;2022-11-18T06:45:02;4.80;;;3.38;;
43771;SDS011;59066;54.782;32.024;2022-11-18T06:47:30;7.18;;;3.92;;
43771;SDS011;59066;54.782;32.024;2022-11-18T06:49:58;4.57;;;3.45;;
43771;SDS011;59066;54.782;32.024;2022-11-18T06:52:25;5.88;;;3.58;;
43771;SDS011;59066;54.782;32.024;2022-11-18T06:54:53;5.50;;;3.25;;
43771;SDS011;59066;54.782;32.024;2022-11-18T06:57:21;8.18;;;3.42;;
43771;SDS011;59066;54.782;32.024;2022-11-18T06:59:48;6.55;;;3.35;;
43771;SDS011;59066;54.782;32.024;2022-11-18T07:02:15;6.30;;;3.38;;
43771;SDS011;59066;54.782;32.024;2022-11-18T07:04:44;5.25;;;3.58;;
43771;SDS011;59066;54.782;32.024;2022-11-18T07:07:12;6.22;;;3.90;;
43771;SDS011;59066;54.782;32.024;2022-11-18T07:09:39;7.18;;;4.15;;
43771;SDS011;59066;54.782;32.024;2022-11-18T07:12:07;7.95;;;3.60;;
43771;SDS011;59066;54.782;32.024;2022-11-18T07:14:34;7.68;;;3.97;;
43771;SDS011;59066;54.782;32.024;2022-11-18T07:17:02;8.35;;;4.88;;
43771;SDS011;59066;54.782;32.024;2022-11-18T07:19:29;5.65;;;3.90;;
43771;SDS011;59066;54.782;32.024;2022-11-18T07:22:01;5.65;;;3.05;;
43771;SDS011;59066;54.782;32.024;2022-11-18T07:24:28;5.35;;;3.50;;
43771;SDS011;59066;54.782;32.024;2022-11-18T07:26:55;7.57;;;3.92;;
43771;SDS011;59066;54.782;32.024;2022-11-18T07:29:23;7.68;;;3.55;;
43771;SDS011;59066;54.782;32.024;2022-11-18T07:31:51;6.45;;;4.10;;
43771;SDS011;59066;54.782;32.024;2022-11-18T07:34:18;5.93;;;3.22;;
43771;SDS011;59066;54.782;32.024;2022-11-18T07:36:46;5.88;;;3.20;;
43771;SDS011;59066;54.782;32.024;2022-11-18T07:39:13;7.25;;;3.88;;
43771;SDS011;59066;54.782;32.024;2022-11-18T07:41:41;4.88;;;3.30;;
43771;SDS011;59066;54.782;32.024;2022-11-18T07:44:11;5.13;;;3.28;;
43771;SDS011;59066;54.782;32.024;2022-11-18T07:46:39;4.18;;;2.70;;
43771;SDS011;59066;54.782;32.024;2022-11-18T07:49:07;3.80;;;2.63;;
43771;SDS011;59066;54.782;32.024;2022-11-18T07:51:35;6.10;;;3.45;;
43771;SDS011;59066;54.782;32.024;2022-11-18T07:54:06;6.75;;;3.17;;
43771;SDS011;59066;54.782;32.024;2022-11-18T07:56:35;7.60;;;3.55;;
43771;SDS011;59066;54.782;32.024;2022-11-18T07:59:02;5.00;;;3.35;;
43771;SDS011;59066;54.782;32.024;2022-11-18T08:01:30;5.93;;;3.20;;
43771;SDS011;59066;54.782;32.024;2022-11-18T08:04:05;5.93;;;3.58;;
43771;SDS011;59066;54.782;32.024;2022-11-18T08:06:35;6.30;;;3.63;;
43771;SDS011;59066;54.782;32.024;2022-11-18T08:09:03;6.03;;;3.65;;
43771;SDS011;59066;54.782;32.024;2022-11-18T08:11:32;7.45;;;4.10;;
43771;SDS011;59066;54.782;32.024;2022-11-18T08:13:59;6.40;;;3.83;;
43771;SDS011;59066;54.782;32.024;2022-11-18T08:16:27;9.88;;;3.72;;
43771;SDS011;59066;54.782;32.024;2022-11-18T08:18:57;6.20;;;4.10;;
43771;SDS011;59066;54.782;32.024;2022-11-18T08:21:25;5.80;;;3.60;;
43771;SDS011;59066;54.782;32.024;2022-11-18T08:23:54;6.72;;;3.92;;
43771;SDS011;59066;54.782;32.024;2022-11-18T08:26:23;6.90;;;3.30;;
43771;SDS011;59066;54.782;32.024;2022-11-18T08:28:51;4.35;;;3.53;;
43771;SDS011;59066;54.782;32.024;2022-11-18T08:31:20;5.43;;;3.42;;
43771;SDS011;59066;54.782;32.024;2022-11-18T08:33:53;5.47;;;3.33;;
43771;SDS011;59066;54.782;32.024;2022-11-18T08:36:25;5.47;;;3.30;;
43771;SDS011;59066;54.782;32.024;2022-11-18T08:38:57;5.95;;;3.25;;
43771;SDS011;59066;54.782;32.024;2022-11-18T08:41:28;5.97;;;3.50;;
43771;SDS011;59066;54.782;32.024;2022-11-18T08:43:59;7.55;;;4.97;;
43771;SDS011;59066;54.782;32.024;2022-11-18T08:46:27;7.28;;;4.10;;
43771;SDS011;59066;54.782;32.024;2022-11-18T08:48:56;18.38;;;4.10;;
43771;SDS011;59066;54.782;32.024;2022-11-18T08:51:24;4.25;;;3.28;;
43771;SDS011;59066;54.782;32.024;2022-11-18T08:53:52;17.50;;;4.75;;
43771;SDS011;59066;54.782;32.024;2022-11-18T08:56:20;8.18;;;4.20;;
43771;SDS011;59066;54.782;32.024;2022-11-18T08:58:49;7.53;;;3.97;;
43771;SDS011;59066;54.782;32.024;2022-11-18T09:01:17;6.03;;;3.67;;
43771;SDS011;59066;54.782;32.024;2022-11-18T09:03:44;7.13;;;4.45;;
43771;SDS011;59066;54.782;32.024;2022-11-18T09:06:21;8.45;;;4.45;;
43771;SDS011;59066;54.782;32.024;2022-11-18T09:08:50;8.18;;;4.97;;
43771;SDS011;59066;54.782;32.024;2022-11-18T09:11:20;6.95;;;4.75;;
43771;SDS011;59066;54.782;32.024;2022-11-18T09:13:53;7.60;;;3.75;;
43771;SDS011;59066;54.782;32.024;2022-11-18T09:16:42;6.78;;;4.20;;
43771;SDS011;59066;54.782;32.024;2022-11-18T09:19:09;6.82;;;3.35;;
43771;SDS011;59066;54.782;32.024;2022-11-18T09:21:57;6.53;;;4.15;;
43771;SDS011;59066;54.782;32.024;2022-11-18T09:24:25;7.40;;;4.75;;
43771;SDS011;59066;54.782;32.024;2022-11-18T09:26:53;8.73;;;4.82;;
43771;SDS011;59066;54.782;32.024;2022-11-18T09:29:20;8.38;;;3.60;;
43771;SDS011;59066;54.782;32.024;2022-11-18T09:31:52;5.85;;;3.55;;
43771;SDS011;59066;54.782;32.024;2022-11-18T09:34:21;5.25;;;3.45;;
43771;SDS011;59066;54.782;32.024;2022-11-18T09:36:49;6.53;;;3.10;;
43771;SDS011;59066;54.782;32.024;2022-11-18T09:39:17;6.90;;;3.60;;
43771;SDS011;59066;54.782;32.024;2022-11-18T09:41:46;10.93;;;8.00;;
43771;SDS011;59066;54.782;32.024;2022-11-18T09:44:44;8.07;;;4.07;;
43771;SDS011;59066;54.782;32.024;2022-11-18T09:47:19;6.93;;;4.13;;
43771;SDS011;59066;54.782;32.024;2022-11-18T09:49:56;14.77;;;8.65;;
43771;SDS011;59066;54.782;32.024;2022-11-18T09:55:40;11.43;;;4.45;;
43771;SDS011;59066;54.782;32.024;2022-11-18T09:58:11;8.20;;;4.72;;
43771;SDS011;59066;54.782;32.024;2022-11-18T10:00:44;7.45;;;4.45;;
43771;SDS011;59066;54.782;32.024;2022-11-18T10:03:29;5.45;;;3.50;;
43771;SDS011;59066;54.782;32.024;2022-11-18T10:08:39;7.45;;;4.28;;
43771;SDS011;59066;54.782;32.024;2022-11-18T10:11:17;8.52;;;3.33;;
43771;SDS011;59066;54.782;32.024;2022-11-18T10:13:54;4.50;;;3.17;;
43771;SDS011;59066;54.782;32.024;2022-11-18T10:16:44;7.35;;;3.75;;
43771;SDS011;59066;54.782;32.024;2022-11-18T10:19:36;7.55;;;3.40;;
43771;SDS011;59066;54.782;32.024;2022-11-18T10:22:20;11.35;;;3.92;;
43771;SDS011;59066;54.782;32.024;2022-11-18T10:25:00;6.65;;;3.05;;
43771;SDS011;59066;54.782;32.024;2022-11-18T10:27:36;7.47;;;4.00;;
43771;SDS011;59066;54.782;32.024;2022-11-18T10:30:13;10.45;;;4.07;;
43771;SDS011;59066;54.782;32.024;2022-11-18T10:40:56;13.60;;;4.00;;
43771;SDS011;59066;54.782;32.024;2022-11-18T10:43:41;9.10;;;4.20;;
43771;SDS011;59066;54.782;32.024;2022-11-18T10:46:30;7.60;;;4.05;;
43771;SDS011;59066;54.782;32.024;2022-11-18T10:51:36;17.10;;;5.32;;
43771;SDS011;59066;54.782;32.024;2022-11-18T10:56:53;29.75;;;7.57;;
43771;SDS011;59066;54.782;32.024;2022-11-18T10:59:32;41.17;;;11.05;;
43771;SDS011;59066;54.782;32.024;2022-11-18T11:04:39;20.05;;;4.72;;
43771;SDS011;59066;54.782;32.024;2022-11-18T11:12:39;40.95;;;6.20;;
43771;SDS011;59066;54.782;32.024;2022-11-18T11:15:14;16.00;;;4.85;;
43771;SDS011;59066;54.782;32.024;2022-11-18T11:17:47;17.02;;;8.40;;
43771;SDS011;59066;54.782;32.024;2022-11-18T11:20:39;16.05;;;4.85;;
43771;SDS011;59066;54.782;32.024;2022-11-18T11:23:10;39.42;;;7.38;;
43771;SDS011;59066;54.782;32.024;2022-11-18T11:25:47;17.70;;;5.18;;
43771;SDS011;59066;54.782;32.024;2022-11-18T11:28:54;21.25;;;5.43;;
43771;SDS011;59066;54.782;32.024;2022-11-18T11:31:34;18.13;;;4.60;;
43771;SDS011;59066;54.782;32.024;2022-11-18T11:34:37;29.23;;;8.27;;
43771;SDS011;59066;54.782;32.024;2022-11-18T11:48:17;37.65;;;5.85;;
43771;SDS011;59066;54.782;32.024;2022-11-18T12:08:02;27.50;;;7.22;;
43771;SDS011;59066;54.782;32.024;2022-11-18T12:24:23;15.45;;;5.90;;
43771;SDS011;59066;54.782;32.024;2022-11-18T12:26:58;24.40;;;7.03;;
43771;SDS011;59066;54.782;32.024;2022-11-18T12:29:51;14.52;;;5.65;;
43771;SDS011;59066;54.782;32.024;2022-11-18T12:32:25;27.27;;;5.95;;
43771;SDS011;59066;54.782;32.024;2022-11-18T12:39:57;18.63;;;6.25;;
43771;SDS011;59066;54.782;32.024;2022-11-18T12:53:43;19.90;;;5.20;;
43771;SDS011;59066;54.782;32.024;2022-11-18T12:58:49;12.95;;;4.63;;
43771;SDS011;59066;54.782;32.024;2022-11-18T13:01:31;16.45;;;5.20;;
43771;SDS011;59066;54.782;32.024;2022-11-18T13:04:06;22.63;;;5.32;;
43771;SDS011;59066;54.782;32.024;2022-11-18T13:06:40;33.70;;;7.40;;
43771;SDS011;59066;54.782;32.024;2022-11-18T13:09:16;12.73;;;5.97;;
43771;SDS011;59066;54.782;32.024;2022-11-18T13:12:00;28.02;;;5.85;;
43771;SDS011;59066;54.782;32.024;2022-11-18T13:14:32;10.00;;;5.03;;
43771;SDS011;59066;54.782;32.024;2022-11-18T13:17:27;13.77;;;5.22;;
43771;SDS011;59066;54.782;32.024;2022-11-18T13:22:52;16.80;;;4.47;;
43771;SDS011;59066;54.782;32.024;2022-11-18T13:25:40;12.32;;;5.53;;
43771;SDS011;59066;54.782;32.024;2022-11-18T13:30:47;15.40;;;5.05;;
43771;SDS011;59066;54.782;32.024;2022-11-18T13:33:23;16.42;;;5.25;;
43771;SDS011;59066;54.782;32.024;2022-11-18T13:35:51;13.18;;;5.50;;
43771;SDS011;59066;54.782;32.024;2022-11-18T13:38:20;15.05;;;6.63;;
43771;SDS011;59066;54.782;32.024;2022-11-18T13:40:54;21.17;;;6.40;;
43771;SDS011;59066;54.782;32.024;2022-11-18T13:43:31;14.77;;;6.38;;
43771;SDS011;59066;54.782;32.024;2022-11-18T13:45:59;17.20;;;7.80;;
43771;SDS011;59066;54.782;32.024;2022-11-18T13:48:30;15.65;;;8.00;;
43771;SDS011;59066;54.782;32.024;2022-11-18T13:51:00;17.65;;;6.53;;
43771;SDS011;59066;54.782;32.024;2022-11-18T13:56:04;15.50;;;4.95;;
43771;SDS011;59066;54.782;32.024;2022-11-18T14:01:33;11.07;;;5.78;;
43771;SDS011;59066;54.782;32.024;2022-11-18T14:04:05;8.95;;;4.70;;
43771;SDS011;59066;54.782;32.024;2022-11-18T14:06:40;14.52;;;4.78;;
43771;SDS011;59066;54.782;32.024;2022-11-18T14:09:27;11.13;;;5.53;;
43771;SDS011;59066;54.782;32.024;2022-11-18T14:12:04;23.90;;;7.55;;
43771;SDS011;59066;54.782;32.024;2022-11-18T14:14:46;9.90;;;4.85;;
43771;SDS011;59066;54.782;32.024;2022-11-18T14:19:52;10.50;;;5.47;;
43771;SDS011;59066;54.782;32.024;2022-11-18T14:22:22;16.58;;;6.15;;
43771;SDS011;59066;54.782;32.024;2022-11-18T14:24:58;11.20;;;6.15;;
43771;SDS011;59066;54.782;32.024;2022-11-18T14:35:42;10.73;;;5.88;;
43771;SDS011;59066;54.782;32.024;2022-11-18T14:38:17;11.02;;;5.72;;
43771;SDS011;59066;54.782;32.024;2022-11-18T14:41:10;16.77;;;5.90;;
43771;SDS011;59066;54.782;32.024;2022-11-18T14:43:40;15.65;;;6.10;;
43771;SDS011;59066;54.782;32.024;2022-11-18T14:48:44;12.25;;;5.72;;
43771;SDS011;59066;54.782;32.024;2022-11-18T14:51:12;22.77;;;6.18;;
43771;SDS011;59066;54.782;32.024;2022-11-18T14:53:42;28.20;;;10.98;;
43771;SDS011;59066;54.782;32.024;2022-11-18T14:56:13;25.17;;;7.32;;
43771;SDS011;59066;54.782;32.024;2022-11-18T14:59:10;29.83;;;9.95;;
43771;SDS011;59066;54.782;32.024;2022-11-18T15:01:39;21.17;;;7.63;;
43771;SDS011;59066;54.782;32.024;2022-11-18T15:04:08;24.83;;;6.68;;
43771;SDS011;59066;54.782;32.024;2022-11-18T15:06:35;25.75;;;6.25;;
43771;SDS011;59066;54.782;32.024;2022-11-18T15:09:05;16.92;;;5.78;;
43771;SDS011;59066;54.782;32.024;2022-11-18T15:11:36;29.95;;;6.10;;
43771;SDS011;59066;54.782;32.024;2022-11-18T15:14:03;33.65;;;7.75;;
43771;SDS011;59066;54.782;32.024;2022-11-18T15:16:31;31.75;;;6.60;;
43771;SDS011;59066;54.782;32.024;2022-11-18T15:19:01;12.50;;;6.05;;
43771;SDS011;59066;54.782;32.024;2022-11-18T15:21:30;18.35;;;6.55;;
43771;SDS011;59066;54.782;32.024;2022-11-18T15:23:58;26.13;;;6.15;;
43771;SDS011;59066;54.782;32.024;2022-11-18T15:26:27;31.42;;;7.10;;
43771;SDS011;59066;54.782;32.024;2022-11-18T15:29:03;20.27;;;6.15;;
43771;SDS011;59066;54.782;32.024;2022-11-18T15:31:30;32.80;;;8.95;;
43771;SDS011;59066;54.782;32.024;2022-11-18T15:33:58;31.17;;;8.13;;
43771;SDS011;59066;54.782;32.024;2022-11-18T15:36:31;14.98;;;5.70;;
43771;SDS011;59066;54.782;32.024;2022-11-18T15:38:59;9.00;;;4.18;;
43771;SDS011;59066;54.782;32.024;2022-11-18T15:41:27;18.52;;;5.32;;
43771;SDS011;59066;54.782;32.024;2022-11-18T15:43:56;30.58;;;7.13;;
43771;SDS011;59066;54.782;32.024;2022-11-18T15:46:25;31.38;;;6.18;;
43771;SDS011;59066;54.782;32.024;2022-11-18T15:48:53;27.38;;;5.53;;
43771;SDS011;59066;54.782;32.024;2022-11-18T15:51:22;34.20;;;6.95;;
43771;SDS011;59066;54.782;32.024;2022-11-18T15:53:50;27.30;;;5.75;;
43771;SDS011;59066;54.782;32.024;2022-11-18T15:58:55;34.65;;;6.30;;
43771;SDS011;59066;54.782;32.024;2022-11-18T16:01:24;20.45;;;5.13;;
43771;SDS011;59066;54.782;32.024;2022-11-18T16:03:53;32.35;;;5.57;;
43771;SDS011;59066;54.782;32.024;2022-11-18T16:06:21;29.55;;;5.57;;
43771;SDS011;59066;54.782;32.024;2022-11-18T16:08:49;61.42;;;10.27;;
43771;SDS011;59066;54.782;32.024;2022-11-18T16:11:23;35.00;;;7.28;;
43771;SDS011;59066;54.782;32.024;2022-11-18T16:14:10;19.55;;;4.80;;
43771;SDS011;59066;54.782;32.024;2022-11-18T16:16:40;24.10;;;8.55;;
43771;SDS011;59066;54.782;32.024;2022-11-18T16:19:09;29.42;;;5.95;;
43771;SDS011;59066;54.782;32.024;2022-11-18T16:21:42;15.23;;;5.93;;
43771;SDS011;59066;54.782;32.024;2022-11-18T16:24:16;21.77;;;5.68;;
43771;SDS011;59066;54.782;32.024;2022-11-18T16:26:46;39.22;;;8.05;;
43771;SDS011;59066;54.782;32.024;2022-11-18T16:29:14;26.13;;;5.55;;
43771;SDS011;59066;54.782;32.024;2022-11-18T16:31:44;33.72;;;6.10;;
43771;SDS011;59066;54.782;32.024;2022-11-18T16:34:23;19.85;;;4.97;;
43771;SDS011;59066;54.782;32.024;2022-11-18T16:36:56;33.83;;;6.20;;
43771;SDS011;59066;54.782;32.024;2022-11-18T16:39:27;31.95;;;7.28;;
43771;SDS011;59066;54.782;32.024;2022-11-18T16:41:59;27.98;;;8.45;;
43771;SDS011;59066;54.782;32.024;2022-11-18T16:44:34;65.45;;;11.88;;
43771;SDS011;59066;54.782;32.024;2022-11-18T16:47:02;26.70;;;6.00;;
43771;SDS011;59066;54.782;32.024;2022-11-18T16:49:34;7.95;;;3.85;;
43771;SDS011;59066;54.782;32.024;2022-11-18T16:52:01;12.40;;;4.93;;
43771;SDS011;59066;54.782;32.024;2022-11-18T16:54:30;15.52;;;5.22;;
43771;SDS011;59066;54.782;32.024;2022-11-18T16:56:58;55.65;;;7.88;;
43771;SDS011;59066;54.782;32.024;2022-11-18T16:59:26;40.08;;;6.22;;
43771;SDS011;59066;54.782;32.024;2022-11-18T17:01:56;19.70;;;5.22;;
43771;SDS011;59066;54.782;32.024;2022-11-18T17:04:28;16.40;;;5.05;;
43771;SDS011;59066;54.782;32.024;2022-11-18T17:06:56;13.48;;;5.30;;
43771;SDS011;59066;54.782;32.024;2022-11-18T17:09:26;17.38;;;5.15;;
43771;SDS011;59066;54.782;32.024;2022-11-18T17:11:54;12.90;;;4.90;;
43771;SDS011;59066;54.782;32.024;2022-11-18T17:14:22;8.00;;;4.45;;
43771;SDS011;59066;54.782;32.024;2022-11-18T17:16:51;5.13;;;3.60;;
43771;SDS011;59066;54.782;32.024;2022-11-18T17:19:19;11.48;;;4.53;;
43771;SDS011;59066;54.782;32.024;2022-11-18T17:21:48;5.90;;;3.95;;
43771;SDS011;59066;54.782;32.024;2022-11-18T17:24:18;21.90;;;5.63;;
43771;SDS011;59066;54.782;32.024;2022-11-18T17:26:47;13.82;;;6.75;;
43771;SDS011;59066;54.782;32.024;2022-11-18T17:29:15;11.73;;;4.35;;
43771;SDS011;59066;54.782;32.024;2022-11-18T17:31:43;14.15;;;5.30;;
43771;SDS011;59066;54.782;32.024;2022-11-18T17:34:11;8.85;;;4.85;;
43771;SDS011;59066;54.782;32.024;2022-11-18T17:36:40;14.88;;;4.10;;